createdAt,value
2023-05-19T00:04:52.059Z,10.30
2023-05-19T00:10:54.398Z,10.10
2023-05-19T00:16:57.980Z,10.10
2023-05-19T00:22:59.927Z,9.90
2023-05-19T00:29:01.924Z,9.80
2023-05-19T00:35:04.105Z,9.50
2023-05-19T00:41:07.406Z,9.20
2023-05-19T00:47:09.455Z,9.10
2023-05-19T00:53:14.505Z,9.10
2023-05-19T00:59:17.268Z,9.20
2023-05-19T01:05:19.267Z,9.40
2023-05-19T01:11:21.570Z,9.60
2023-05-19T01:17:54.721Z,9.70
2023-05-19T01:24:32.938Z,9.80
2023-05-19T01:30:48.580Z,9.90
2023-05-19T01:36:53.326Z,10.00
2023-05-19T01:42:58.784Z,10.10
2023-05-19T01:49:01.846Z,10.20
2023-05-19T01:55:04.252Z,10.30
2023-05-19T02:01:53.731Z,10.40
2023-05-19T02:08:24.099Z,10.40
2023-05-19T02:14:35.428Z,10.40
2023-05-19T02:20:39.444Z,10.30
2023-05-19T02:26:41.407Z,10.10
2023-05-19T02:32:46.849Z,9.90
2023-05-19T02:38:48.907Z,9.70
2023-05-19T02:44:51.584Z,9.60
2023-05-19T02:50:53.532Z,9.30
2023-05-19T02:56:55.570Z,9.20
2023-05-19T03:03:02.706Z,9.00
2023-05-19T03:09:04.959Z,8.90
2023-05-19T03:15:07.747Z,8.90
2023-05-19T03:21:09.679Z,8.70
2023-05-19T03:27:13.999Z,8.70
2023-05-19T03:33:16.290Z,8.60
2023-05-19T03:39:18.463Z,8.50
2023-05-19T03:45:21.119Z,8.60
2023-05-19T03:51:23.162Z,8.70
2023-05-19T03:57:25.154Z,8.80
2023-05-19T04:03:28.490Z,8.90
2023-05-19T04:09:32.417Z,9.00
2023-05-19T04:15:34.416Z,9.00
2023-05-19T04:21:36.610Z,8.80
2023-05-19T04:27:39.257Z,8.80
2023-05-19T04:33:42.423Z,8.80
2023-05-19T04:39:45.430Z,9.00
2023-05-19T04:45:50.155Z,9.20
2023-05-19T04:51:55.504Z,9.40
2023-05-19T04:57:57.710Z,9.50
2023-05-19T05:04:01.150Z,9.60
2023-05-19T05:10:03.985Z,9.60
2023-05-19T05:16:08.454Z,9.70
2023-05-19T05:22:10.892Z,9.80
2023-05-19T05:28:13.164Z,10.10
2023-05-19T05:34:15.413Z,10.50
2023-05-19T05:40:17.762Z,10.80
2023-05-19T05:46:19.756Z,10.90
2023-05-19T05:52:22.925Z,11.00
2023-05-19T05:58:24.878Z,11.10
2023-05-19T06:04:27.387Z,11.40
2023-05-19T06:10:29.963Z,11.70
2023-05-19T06:16:32.212Z,11.80
2023-05-19T06:22:34.468Z,12.30
2023-05-19T06:28:36.430Z,12.60
2023-05-19T06:34:40.370Z,12.80
2023-05-19T06:40:42.687Z,13.20
2023-05-19T06:46:44.786Z,14.00
2023-05-19T06:52:47.162Z,14.20
2023-05-19T06:58:49.099Z,13.90
2023-05-19T07:04:52.745Z,14.00
2023-05-19T07:10:56.091Z,14.60
2023-05-19T07:16:58.070Z,15.20
2023-05-19T07:23:00.014Z,15.50
2023-05-19T07:29:01.988Z,15.80
2023-05-19T07:35:05.944Z,16.00
2023-05-19T07:41:07.888Z,16.40
2023-05-19T07:47:09.925Z,17.00
2023-05-19T07:53:11.879Z,17.30
2023-05-19T07:59:14.869Z,17.30
2023-05-19T08:05:17.281Z,17.40
2023-05-19T08:11:19.261Z,17.70
2023-05-19T08:17:22.013Z,17.70
2023-05-19T08:23:26.741Z,17.30
2023-05-19T08:29:28.655Z,18.00
2023-05-19T08:35:31.477Z,17.90
2023-05-19T08:41:33.564Z,17.40
2023-05-19T08:47:35.893Z,18.20
2023-05-19T08:53:43.989Z,18.90
2023-05-19T08:59:46.044Z,19.10
2023-05-19T09:05:59.880Z,20.10
2023-05-19T09:12:04.581Z,20.80
2023-05-19T09:18:12.919Z,21.40
2023-05-19T09:24:18.106Z,21.80
2023-05-19T09:30:20.373Z,22.20
2023-05-19T09:36:22.490Z,21.50
2023-05-19T09:42:29.761Z,21.90
2023-05-19T09:48:32.193Z,22.50
2023-05-19T09:54:34.730Z,22.80
2023-05-19T10:00:37.956Z,22.80
2023-05-19T10:06:40.495Z,22.80
2023-05-19T10:12:44.949Z,23.50
2023-05-19T10:18:55.423Z,23.90
2023-05-19T10:24:57.468Z,23.80
2023-05-19T10:31:06.685Z,23.60
2023-05-19T10:37:45.557Z,23.20
2023-05-19T10:50:48.240Z,23.50
2023-05-19T10:56:50.641Z,23.90
2023-05-19T11:02:56.373Z,24.30
2023-05-19T11:09:10.560Z,23.30
2023-05-19T11:15:15.617Z,23.50
2023-05-19T11:21:20.056Z,22.90
2023-05-19T11:27:32.472Z,23.20
2023-05-19T11:33:34.820Z,22.30
2023-05-19T11:39:37.043Z,21.90
2023-05-19T11:45:39.596Z,21.80
2023-05-19T11:51:44.583Z,21.90
2023-05-19T11:58:03.847Z,22.90
2023-05-19T12:04:10.372Z,22.10
2023-05-19T12:10:12.661Z,21.70
2023-05-19T12:16:14.702Z,21.30
2023-05-19T12:22:20.411Z,21.20
2023-05-19T12:28:22.422Z,21.10
2023-05-19T12:34:24.399Z,21.00
2023-05-19T12:40:29.286Z,21.00
2023-05-19T12:46:33.516Z,20.80
2023-05-19T12:52:44.690Z,21.00
2023-05-19T12:58:46.752Z,21.40
2023-05-19T13:04:48.955Z,21.20
2023-05-19T13:10:51.276Z,20.40
2023-05-19T13:16:53.312Z,20.30
2023-05-19T13:23:05.265Z,20.30
2023-05-19T13:29:07.313Z,19.70
2023-05-19T13:35:10.887Z,19.30
2023-05-19T13:41:13.867Z,19.20
2023-05-19T13:47:17.266Z,19.00
2023-05-19T13:53:19.244Z,19.10
2023-05-19T13:59:24.695Z,19.10
2023-05-19T14:05:28.354Z,19.20
2023-05-19T14:11:30.376Z,19.70
2023-05-19T14:17:33.872Z,19.70
2023-05-19T14:30:02.047Z,20.40
2023-05-19T14:36:05.362Z,20.80
2023-05-19T14:42:07.289Z,21.10
2023-05-19T14:48:10.812Z,21.20
2023-05-19T14:54:12.760Z,21.00
2023-05-19T15:00:14.986Z,20.90
2023-05-19T15:06:26.897Z,20.90
2023-05-19T15:12:28.984Z,20.80
2023-05-19T15:18:30.967Z,20.90
2023-05-19T15:24:33.063Z,20.90
2023-05-19T15:30:35.253Z,22.00
2023-05-19T15:36:37.308Z,22.50
2023-05-19T15:42:39.268Z,22.10
2023-05-19T15:48:41.305Z,21.30
2023-05-19T15:54:43.259Z,21.00
2023-05-19T16:00:45.757Z,21.40
2023-05-19T16:06:47.740Z,21.90
2023-05-19T16:13:03.560Z,21.50
2023-05-19T16:19:05.546Z,21.00
2023-05-19T16:25:10.291Z,20.50
2023-05-19T16:31:12.707Z,20.20
2023-05-19T16:37:14.747Z,19.80
2023-05-19T16:43:16.675Z,19.30
2023-05-19T16:49:18.651Z,18.80
2023-05-19T16:55:20.734Z,18.80
2023-05-19T17:01:22.854Z,18.90
2023-05-19T17:07:24.861Z,19.30
2023-05-19T17:13:28.734Z,19.80
2023-05-19T17:19:30.742Z,20.60
2023-05-19T17:25:33.863Z,20.90
2023-05-19T17:31:36.272Z,21.60
2023-05-19T17:37:38.204Z,22.20
2023-05-19T17:43:41.907Z,21.60
2023-05-19T17:49:43.926Z,21.00
2023-05-19T17:55:52.121Z,20.60
2023-05-19T18:01:57.958Z,20.30
2023-05-19T18:08:04.946Z,20.50
2023-05-19T18:14:06.884Z,20.70
2023-05-19T18:20:09.465Z,21.10
2023-05-19T18:26:17.026Z,21.50
2023-05-19T18:32:21.643Z,21.40
2023-05-19T18:38:23.841Z,21.60
2023-05-19T18:44:25.921Z,21.00
2023-05-19T18:50:27.884Z,19.50
2023-05-19T18:56:33.280Z,18.60
2023-05-19T19:02:35.266Z,17.80
2023-05-19T19:08:37.238Z,17.10
2023-05-19T19:14:39.284Z,15.90
2023-05-19T19:20:41.561Z,15.00
2023-05-19T19:26:43.897Z,14.30
2023-05-19T19:32:46.031Z,13.80
2023-05-19T19:38:48.293Z,13.30
2023-05-19T19:44:54.242Z,12.90
2023-05-19T19:50:57.536Z,12.70
2023-05-19T19:56:59.448Z,12.50
2023-05-19T20:03:05.047Z,12.20
2023-05-19T20:09:07.747Z,12.10
2023-05-19T20:15:10.294Z,12.10
2023-05-19T20:21:12.494Z,12.10
2023-05-19T20:27:14.500Z,12.10
2023-05-19T20:33:16.528Z,12.10
2023-05-19T20:39:18.550Z,12.10
2023-05-19T20:45:29.570Z,12.30
2023-05-19T20:51:32.742Z,12.30
2023-05-19T20:57:35.037Z,12.20
2023-05-19T21:03:37.050Z,12.30
2023-05-19T21:09:39.689Z,12.40
2023-05-19T21:15:41.674Z,12.60
2023-05-19T21:21:44.944Z,12.60
2023-05-19T21:27:47.505Z,12.60
2023-05-19T21:33:49.650Z,12.50
2023-05-19T21:39:51.647Z,12.30
2023-05-19T21:45:53.601Z,12.10
2023-05-19T21:51:55.643Z,12.00
2023-05-19T21:57:59.072Z,11.80
2023-05-19T22:04:02.376Z,11.80
2023-05-19T22:10:13.430Z,11.80
2023-05-19T22:16:15.479Z,11.70
2023-05-19T22:22:17.505Z,11.70
2023-05-19T22:28:22.797Z,11.50
2023-05-19T22:34:24.793Z,11.40
2023-05-19T22:40:26.741Z,11.20
2023-05-19T22:46:28.845Z,11.10
2023-05-19T22:52:31.002Z,11.10
2023-05-19T22:58:32.962Z,11.10
2023-05-19T23:04:35.797Z,11.10
2023-05-19T23:10:38.172Z,11.10
2023-05-19T23:16:40.156Z,11.10
2023-05-19T23:22:42.124Z,11.00
2023-05-19T23:28:44.271Z,10.90
2023-05-19T23:34:47.889Z,10.90
2023-05-19T23:40:49.840Z,10.90
2023-05-19T23:46:51.832Z,10.90
2023-05-19T23:52:53.856Z,10.80
2023-05-19T23:58:55.789Z,10.90
